createdAt,value
2019-05-16T00:00:14.309Z,101103.72
2019-05-16T00:02:47.996Z,101095.94
2019-05-16T00:05:19.196Z,101097.02
2019-05-16T00:07:50.707Z,101096.92
2019-05-16T00:10:22.355Z,101102.52
2019-05-16T00:12:54.025Z,101099.13
2019-05-16T00:15:25.543Z,101103.41
2019-05-16T00:17:58.383Z,101098.42
2019-05-16T00:20:30.046Z,101098.77
2019-05-16T00:23:01.559Z,101098.55
2019-05-16T00:25:33.262Z,101092.70
2019-05-16T00:28:04.779Z,101087.08
2019-05-16T00:30:38.940Z,101094.53
2019-05-16T00:33:09.495Z,101094.73
2019-05-16T00:35:41.040Z,101091.34
2019-05-16T00:38:12.468Z,101093.04
2019-05-16T00:40:44.044Z,101094.87
2019-05-16T00:43:15.393Z,101094.52
2019-05-16T00:45:48.647Z,101089.42
2019-05-16T00:48:20.074Z,101086.12
2019-05-16T00:50:51.427Z,101087.69
2019-05-16T00:53:22.881Z,101089.06
2019-05-16T00:55:54.966Z,101083.58
2019-05-16T00:58:28.428Z,101083.35
2019-05-16T01:00:59.827Z,101079.83
2019-05-16T01:03:31.167Z,101085.67
2019-05-16T01:06:15.438Z,101082.28
2019-05-16T01:08:35.713Z,101088.58
2019-05-16T01:11:07.944Z,101090.89
2019-05-16T01:13:39.558Z,101091.75
2019-05-16T01:16:10.905Z,101092.00
2019-05-16T01:18:42.515Z,101096.02
2019-05-16T01:21:13.864Z,101094.57
2019-05-16T01:23:45.244Z,101096.14
2019-05-16T01:26:18.546Z,101094.18
2019-05-16T01:28:49.760Z,101091.14
2019-05-16T01:31:21.094Z,101089.70
2019-05-16T01:33:55.292Z,101099.30
2019-05-16T01:36:36.655Z,101100.63
2019-05-16T01:39:00.073Z,101094.94
2019-05-16T01:41:31.538Z,101084.95
2019-05-16T01:44:03.377Z,101086.16
2019-05-16T01:46:34.733Z,101091.03
2019-05-16T01:49:08.175Z,101091.64
2019-05-16T01:51:39.379Z,101101.00
2019-05-16T01:54:10.845Z,101092.00
2019-05-16T01:56:43.369Z,101091.37
2019-05-16T01:59:14.948Z,101087.49
2019-05-16T02:01:48.272Z,101085.18
2019-05-16T02:04:19.736Z,101090.43
2019-05-16T02:06:54.684Z,101089.59
2019-05-16T02:09:24.764Z,101092.00
2019-05-16T02:11:58.751Z,101091.77
2019-05-16T02:14:29.557Z,101089.80
2019-05-16T02:17:01.014Z,101097.97
2019-05-16T02:19:32.627Z,101093.81
2019-05-16T02:22:04.117Z,101095.41
2019-05-16T02:24:35.463Z,101099.05
2019-05-16T02:27:09.389Z,101096.50
2019-05-16T02:29:40.271Z,101093.21
2019-05-16T02:32:11.828Z,101091.02
2019-05-16T02:34:43.290Z,101095.13
2019-05-16T02:37:24.469Z,101093.57
2019-05-16T02:39:51.557Z,101099.41
2019-05-16T02:42:21.634Z,101094.13
2019-05-16T02:44:52.957Z,101095.80
2019-05-16T02:47:24.336Z,101096.67
2019-05-16T02:49:55.607Z,101097.52
2019-05-16T02:52:26.895Z,101095.34
2019-05-16T02:55:00.810Z,101096.92
2019-05-16T02:57:31.892Z,101103.95
2019-05-16T03:00:03.737Z,101096.91
2019-05-16T03:02:35.187Z,101097.05
2019-05-16T03:05:11.527Z,101093.88
2019-05-16T03:07:46.936Z,101095.64
2019-05-16T03:10:15.484Z,101094.97
2019-05-16T03:12:51.369Z,101088.95
2019-05-16T03:15:22.900Z,101088.95
2019-05-16T03:18:00.353Z,101098.56
2019-05-16T03:20:33.805Z,101104.63
2019-05-16T03:23:05.241Z,101098.78
2019-05-16T03:25:36.537Z,101106.22
2019-05-16T03:28:10.900Z,101106.47
2019-05-16T03:30:44.669Z,101102.56
2019-05-16T03:33:22.481Z,101104.87
2019-05-16T03:35:47.248Z,101113.17
2019-05-16T03:38:21.338Z,101113.42
2019-05-16T03:40:51.779Z,101112.66
2019-05-16T03:43:23.057Z,101107.42
2019-05-16T03:45:54.394Z,101107.67
2019-05-16T03:48:25.787Z,101107.20
2019-05-16T03:50:57.077Z,101118.16
2019-05-16T03:53:31.472Z,101114.14
2019-05-16T03:56:02.014Z,101111.97
2019-05-16T03:58:33.644Z,101107.83
2019-05-16T04:01:06.448Z,101116.09
2019-05-16T04:03:40.985Z,101109.27
2019-05-16T04:06:11.939Z,101107.31
2019-05-16T04:08:43.847Z,101112.67
2019-05-16T04:11:18.566Z,101109.86
2019-05-16T04:13:50.797Z,101113.65
2019-05-16T04:16:21.724Z,101113.03
2019-05-16T04:18:53.306Z,101112.53
2019-05-16T04:21:24.936Z,101113.12
2019-05-16T04:23:56.354Z,101112.66
2019-05-16T04:26:30.793Z,101112.52
2019-05-16T04:29:01.223Z,101114.21
2019-05-16T04:31:32.555Z,101116.17
2019-05-16T04:34:04.009Z,101113.69
2019-05-16T04:36:35.718Z,101112.92
2019-05-16T04:39:11.663Z,101109.61
2019-05-16T04:41:41.287Z,101115.36
2019-05-16T04:44:12.706Z,101112.07
2019-05-16T04:46:43.971Z,101107.17
2019-05-16T04:49:16.353Z,101103.00
2019-05-16T04:51:47.864Z,101108.09
2019-05-16T04:54:21.545Z,101098.55
2019-05-16T04:56:53.088Z,101097.89
2019-05-16T04:59:24.461Z,101088.48
2019-05-16T05:01:56.014Z,101090.31
2019-05-16T05:04:30.288Z,101094.89
2019-05-16T05:07:00.835Z,101092.70
2019-05-16T05:09:33.348Z,101096.31
2019-05-16T05:12:05.089Z,101095.89
2019-05-16T05:14:36.581Z,101092.44
2019-05-16T05:17:10.507Z,101090.07
2019-05-16T05:19:41.532Z,101083.11
2019-05-16T05:22:13.207Z,101089.45
2019-05-16T05:24:44.632Z,101087.27
2019-05-16T05:27:16.154Z,101084.89
2019-05-16T05:29:47.460Z,101085.44
2019-05-16T05:32:20.053Z,101091.66
2019-05-16T05:34:51.678Z,101093.20
2019-05-16T05:37:23.121Z,101093.84
2019-05-16T05:39:54.573Z,101086.22
2019-05-16T05:42:25.998Z,101093.08
2019-05-16T05:44:57.477Z,101088.42
2019-05-16T05:47:30.735Z,101094.09
2019-05-16T05:50:02.140Z,101093.57
2019-05-16T05:52:33.621Z,101091.41
2019-05-16T05:55:06.791Z,101090.80
2019-05-16T05:57:40.362Z,101085.91
2019-05-16T06:00:11.686Z,101090.06
2019-05-16T06:02:43.227Z,101089.53
2019-05-16T06:05:14.735Z,101083.72
2019-05-16T06:07:47.091Z,101086.23
2019-05-16T06:10:19.894Z,101084.18
2019-05-16T06:12:51.302Z,101085.31
2019-05-16T06:15:22.734Z,101079.40
2019-05-16T06:17:54.076Z,101082.11
2019-05-16T06:20:25.612Z,101076.47
2019-05-16T06:22:56.987Z,101074.08
2019-05-16T06:25:31.440Z,101069.24
2019-05-16T06:28:01.456Z,101074.20
2019-05-16T06:30:33.108Z,101072.13
2019-05-16T06:33:04.515Z,101075.90
2019-05-16T06:35:36.928Z,101072.03
2019-05-16T06:38:09.969Z,101075.97
2019-05-16T06:40:41.495Z,101070.98
2019-05-16T06:43:12.793Z,101072.61
2019-05-16T06:45:44.188Z,101066.55
2019-05-16T06:48:15.442Z,101070.63
2019-05-16T06:50:46.921Z,101073.49
2019-05-16T06:53:20.978Z,101074.89
2019-05-16T06:55:52.571Z,101078.52
2019-05-16T06:58:23.908Z,101077.38
2019-05-16T07:00:55.287Z,101075.06
2019-05-16T07:03:26.724Z,101068.25
2019-05-16T07:06:00.347Z,101080.48
2019-05-16T07:08:31.357Z,101084.28
2019-05-16T07:11:02.780Z,101077.78
2019-05-16T07:13:34.162Z,101078.81
2019-05-16T07:16:06.641Z,101082.56
2019-05-16T07:18:40.103Z,101081.22
2019-05-16T07:21:13.441Z,101088.72
2019-05-16T07:23:45.090Z,101092.42
2019-05-16T07:26:16.633Z,101090.91
2019-05-16T07:28:47.945Z,101087.36
2019-05-16T07:31:22.273Z,101090.89
2019-05-16T07:33:52.546Z,101092.58
2019-05-16T07:36:24.081Z,101089.02
2019-05-16T07:38:55.451Z,101084.36
2019-05-16T07:41:26.910Z,101084.52
2019-05-16T07:44:00.733Z,101085.20
2019-05-16T07:46:31.731Z,101077.58
2019-05-16T07:49:03.053Z,101067.94
2019-05-16T07:51:34.449Z,101078.42
2019-05-16T07:54:05.908Z,101073.86
2019-05-16T07:56:40.458Z,101067.73
2019-05-16T07:59:10.601Z,101073.00
2019-05-16T08:01:43.375Z,101066.09
2019-05-16T08:04:14.892Z,101069.83
2019-05-16T08:06:47.152Z,101066.77
2019-05-16T08:09:21.153Z,101061.53
2019-05-16T08:11:51.841Z,101066.59
2019-05-16T08:14:23.262Z,101066.09
2019-05-16T08:16:54.652Z,101067.63
2019-05-16T08:19:27.444Z,101059.66
2019-05-16T08:22:01.241Z,101058.45
2019-05-16T08:24:36.048Z,101058.97
2019-05-16T08:27:05.417Z,101057.30
2019-05-16T08:29:36.912Z,101054.27
2019-05-16T08:32:11.459Z,101054.41
2019-05-16T08:34:41.476Z,101051.84
2019-05-16T08:37:32.845Z,101050.67
2019-05-16T08:39:46.070Z,101054.56
2019-05-16T08:42:20.603Z,101046.92
2019-05-16T08:47:23.562Z,101040.15
2019-05-16T08:49:56.012Z,101048.97
2019-05-16T08:52:27.411Z,101044.08
2019-05-16T08:55:03.350Z,101042.37
2019-05-16T08:57:34.010Z,101040.81
2019-05-16T09:00:13.590Z,101040.73
2019-05-16T09:02:42.434Z,101029.25
2019-05-16T09:05:15.248Z,101031.91
2019-05-16T09:07:46.606Z,101024.56
2019-05-16T09:10:42.043Z,101045.90
2019-05-16T09:12:51.341Z,101022.10
2019-05-16T09:15:22.922Z,101023.54
2019-05-16T09:17:54.248Z,101023.20
2019-05-16T09:20:28.073Z,101028.73
2019-05-16T09:22:58.864Z,101021.73
2019-05-16T09:25:30.417Z,101020.13
2019-05-16T09:28:01.887Z,101017.09
2019-05-16T09:30:33.254Z,101020.37
2019-05-16T09:33:07.058Z,101021.30
2019-05-16T09:35:37.727Z,101019.16
2019-05-16T09:38:09.225Z,101021.16
2019-05-16T09:40:40.637Z,101012.62
2019-05-16T09:43:12.057Z,101013.74
2019-05-16T09:45:43.464Z,101015.78
2019-05-16T09:48:18.467Z,101008.83
2019-05-16T09:50:48.657Z,101003.27
2019-05-16T09:53:20.347Z,101007.84
2019-05-16T09:55:51.700Z,101000.16
2019-05-16T09:58:23.114Z,101000.16
2019-05-16T10:00:57.483Z,101004.69
2019-05-16T10:03:29.273Z,101005.86
2019-05-16T10:06:00.653Z,100989.63
2019-05-16T10:08:34.197Z,100991.58
2019-05-16T10:11:06.327Z,100982.66
2019-05-16T10:13:38.139Z,100981.00
2019-05-16T10:16:09.621Z,100985.55
2019-05-16T10:18:41.955Z,100981.02
2019-05-16T10:21:17.789Z,100984.84
2019-05-16T10:23:47.066Z,100982.02
2019-05-16T10:26:19.548Z,100976.31
2019-05-16T10:28:51.071Z,100973.16
2019-05-16T10:31:36.555Z,100975.42
2019-05-16T10:33:58.123Z,100978.05
2019-05-16T10:36:28.701Z,100969.52
2019-05-16T10:39:00.172Z,100964.39
2019-05-16T10:41:31.710Z,100973.89
2019-05-16T10:44:03.212Z,100976.83
2019-05-16T10:46:37.741Z,100956.30
2019-05-16T10:49:08.671Z,100956.30
2019-05-16T10:51:40.146Z,100970.77
2019-05-16T10:54:17.233Z,100967.45
2019-05-16T10:56:46.727Z,100973.08
2019-05-16T11:01:51.952Z,100967.24
2019-05-16T11:04:29.196Z,100969.95
2019-05-16T11:06:58.605Z,100963.40
2019-05-16T11:09:30.020Z,100950.50
2019-05-16T11:12:01.404Z,100950.21
2019-05-16T11:14:33.003Z,100947.72
2019-05-16T11:17:07.254Z,100950.20
2019-05-16T11:19:38.059Z,100945.66
2019-05-16T11:22:09.585Z,100946.52
2019-05-16T11:24:41.085Z,100946.52
2019-05-16T11:27:12.720Z,100947.91
2019-05-16T11:29:44.173Z,100940.06
2019-05-16T11:32:15.663Z,100944.32
2019-05-16T11:34:47.986Z,100937.98
2019-05-16T11:37:19.656Z,100945.54
2019-05-16T11:39:51.086Z,100945.54
2019-05-16T11:42:22.850Z,100939.78
2019-05-16T11:44:54.329Z,100927.63
2019-05-16T11:47:27.190Z,100934.42
2019-05-16T11:49:58.721Z,100926.84
2019-05-16T11:52:30.557Z,100925.68
2019-05-16T11:55:02.258Z,100925.68
2019-05-16T11:57:34.011Z,100912.75
2019-05-16T12:00:08.570Z,100917.30
2019-05-16T12:02:42.623Z,100915.86
2019-05-16T12:05:13.255Z,100914.98
2019-05-16T12:07:48.179Z,100919.48
2019-05-16T12:10:18.037Z,100905.70
2019-05-16T12:12:49.762Z,100904.55
2019-05-16T12:15:23.922Z,100897.56
2019-05-16T12:18:01.798Z,100903.35
2019-05-16T12:20:28.554Z,100889.30
2019-05-16T12:23:17.345Z,100889.30
2019-05-16T12:25:48.562Z,100893.93
2019-05-16T12:28:20.110Z,100889.33
2019-05-16T12:30:51.458Z,100883.25
2019-05-16T12:33:22.914Z,100893.48
2019-05-16T12:35:57.351Z,100884.37
2019-05-16T12:38:27.890Z,100884.37
2019-05-16T12:40:59.338Z,100884.45
2019-05-16T12:43:44.803Z,100888.85
2019-05-16T12:46:08.187Z,100882.38
2019-05-16T12:48:39.622Z,100876.34
2019-05-16T12:51:11.064Z,100878.47
2019-05-16T12:53:48.225Z,100870.13
2019-05-16T12:56:19.684Z,100873.37
2019-05-16T12:58:51.123Z,100870.77
2019-05-16T13:01:30.624Z,100865.66
2019-05-16T13:04:00.411Z,100861.48
2019-05-16T13:06:31.832Z,100863.92
2019-05-16T13:09:03.678Z,100848.20
2019-05-16T13:11:37.540Z,100846.13
2019-05-16T13:14:11.239Z,100848.27
2019-05-16T13:16:41.566Z,100854.73
2019-05-16T13:19:18.303Z,100845.40
2019-05-16T13:21:49.981Z,100840.09
2019-05-16T13:24:21.422Z,100831.03
2019-05-16T13:26:52.963Z,100831.35
2019-05-16T13:29:27.333Z,100832.85
2019-05-16T13:31:58.008Z,100833.84
2019-05-16T13:34:29.580Z,100823.22
2019-05-16T13:37:00.971Z,100823.22
2019-05-16T13:39:33.445Z,100821.53
2019-05-16T13:42:07.741Z,100820.69
2019-05-16T13:44:38.370Z,100818.15
2019-05-16T13:47:09.951Z,100823.73
2019-05-16T13:49:41.380Z,100827.03
2019-05-16T13:52:12.843Z,100820.89
2019-05-16T13:54:44.400Z,100819.22
2019-05-16T13:57:17.298Z,100819.14
2019-05-16T13:59:49.049Z,100821.05
2019-05-16T14:02:20.524Z,100821.38
2019-05-16T14:04:51.932Z,100824.73
2019-05-16T14:07:23.337Z,100822.30
2019-05-16T14:09:57.724Z,100823.06
2019-05-16T14:12:28.279Z,100817.48
2019-05-16T14:14:59.737Z,100817.48
2019-05-16T14:17:31.226Z,100813.97
2019-05-16T14:20:02.991Z,100813.97
2019-05-16T14:22:36.038Z,100772.08
2019-05-16T14:25:08.952Z,100805.74
2019-05-16T14:27:40.414Z,100809.42
2019-05-16T14:30:12.125Z,100816.41
2019-05-16T14:32:44.458Z,100812.64
2019-05-16T14:35:16.080Z,100811.74
2019-05-16T14:37:47.864Z,100811.74
2019-05-16T14:40:19.271Z,100807.61
2019-05-16T14:42:50.754Z,100807.61
2019-05-16T14:45:23.142Z,100816.52
2019-05-16T14:47:54.556Z,100805.69
2019-05-16T14:50:27.546Z,100805.69
2019-05-16T14:52:59.287Z,100802.88
2019-05-16T14:55:30.724Z,100805.85
2019-05-16T14:58:02.125Z,100808.95
2019-05-16T15:00:34.514Z,100804.77
2019-05-16T15:03:08.315Z,100810.77
2019-05-16T15:05:42.597Z,100811.54
2019-05-16T15:08:12.458Z,100809.41
2019-05-16T15:10:44.111Z,100815.05
2019-05-16T15:13:17.482Z,100798.42
2019-05-16T15:15:48.854Z,100800.22
2019-05-16T15:18:20.316Z,100811.95
2019-05-16T15:20:51.815Z,100802.17
2019-05-16T15:23:24.195Z,100806.61
2019-05-16T15:25:55.725Z,100798.52
2019-05-16T15:28:30.265Z,100808.22
2019-05-16T15:31:00.198Z,100814.06
2019-05-16T15:33:31.692Z,100805.88
2019-05-16T15:36:04.701Z,100813.69
2019-05-16T15:38:36.545Z,100810.02
2019-05-16T15:41:08.773Z,100810.42
2019-05-16T15:43:40.415Z,100803.86
2019-05-16T15:46:12.124Z,100812.31
2019-05-16T15:48:43.920Z,100797.11
2019-05-16T15:51:20.518Z,100803.80
2019-05-16T15:53:51.738Z,100803.80
2019-05-16T15:56:23.238Z,100805.78
2019-05-16T15:58:54.575Z,100800.89
2019-05-16T16:01:27.629Z,100799.45
2019-05-16T16:03:59.377Z,100806.09
2019-05-16T16:06:30.838Z,100802.54
2019-05-16T16:09:02.488Z,100798.66
2019-05-16T16:11:37.457Z,100808.19
2019-05-16T16:14:09.975Z,100803.22
2019-05-16T16:16:43.010Z,100801.55
2019-05-16T16:19:17.303Z,100802.27
2019-05-16T16:21:47.672Z,100811.09
2019-05-16T16:24:19.470Z,100812.45
2019-05-16T16:26:51.026Z,100813.87
2019-05-16T16:29:22.450Z,100818.12
2019-05-16T16:31:56.813Z,100813.06
2019-05-16T16:34:27.985Z,100817.65
2019-05-16T16:36:59.455Z,100816.67
2019-05-16T16:39:31.032Z,100825.69
2019-05-16T16:42:02.537Z,100824.19
2019-05-16T16:44:36.397Z,100825.55
2019-05-16T16:47:07.348Z,100835.39
2019-05-16T16:49:40.536Z,100833.56
2019-05-16T16:52:13.823Z,100835.47
2019-05-16T16:54:47.446Z,100838.86
2019-05-16T16:57:18.474Z,100837.70
2019-05-16T16:59:49.915Z,100838.86
2019-05-16T17:02:21.274Z,100836.66
2019-05-16T17:04:52.677Z,100834.65
2019-05-16T17:07:24.050Z,100835.19
2019-05-16T17:09:56.361Z,100838.22
2019-05-16T17:12:28.031Z,100829.77
2019-05-16T17:14:59.465Z,100840.79
2019-05-16T17:17:32.584Z,100843.14
2019-05-16T17:20:07.315Z,100842.64
2019-05-16T17:22:38.530Z,100842.81
2019-05-16T17:25:10.797Z,100840.80
2019-05-16T17:27:42.249Z,100846.36
2019-05-16T17:30:17.061Z,100840.30
2019-05-16T17:32:48.987Z,100839.63
2019-05-16T17:35:20.951Z,100844.84
2019-05-16T17:37:52.493Z,100844.97
2019-05-16T17:40:24.021Z,100842.78
2019-05-16T17:42:56.843Z,100843.63
2019-05-16T17:45:28.488Z,100852.59
2019-05-16T17:48:00.067Z,100852.59
2019-05-16T17:50:31.553Z,100850.53
2019-05-16T17:53:03.113Z,100855.77
2019-05-16T17:55:36.940Z,100855.44
2019-05-16T17:58:09.079Z,100860.14
2019-05-16T18:00:40.702Z,100860.65
2019-05-16T18:03:12.439Z,100865.38
2019-05-16T18:05:44.015Z,100869.25
2019-05-16T18:08:15.571Z,100869.58
2019-05-16T18:10:47.386Z,100865.86
2019-05-16T18:13:18.949Z,100867.72
2019-05-16T18:15:50.416Z,100868.38
2019-05-16T18:18:23.445Z,100869.25
2019-05-16T18:21:01.450Z,100867.21
2019-05-16T18:23:28.160Z,100865.48
2019-05-16T18:26:02.103Z,100865.48
2019-05-16T18:28:32.878Z,100865.29
2019-05-16T18:31:06.886Z,100869.00
2019-05-16T18:33:38.404Z,100873.30
2019-05-16T18:36:09.945Z,100882.05
2019-05-16T18:38:41.384Z,100872.57
2019-05-16T18:41:12.867Z,100873.88
2019-05-16T18:43:44.420Z,100876.41
2019-05-16T18:46:16.335Z,100876.41
2019-05-16T18:48:47.937Z,100876.24
2019-05-16T18:51:19.368Z,100871.12
2019-05-16T18:53:50.801Z,100868.59
2019-05-16T18:56:22.222Z,100869.59
2019-05-16T18:58:53.575Z,100874.41
2019-05-16T19:01:26.867Z,100879.59
2019-05-16T19:04:00.477Z,100879.21
2019-05-16T19:06:31.921Z,100885.44
2019-05-16T19:09:07.129Z,100882.28
2019-05-16T19:11:38.329Z,100883.91
2019-05-16T19:14:10.199Z,100882.33
2019-05-16T19:16:41.648Z,100886.33
2019-05-16T19:19:12.917Z,100887.45
2019-05-16T19:21:44.450Z,100889.14
2019-05-16T19:24:16.445Z,100883.87
2019-05-16T19:26:48.296Z,100882.00
2019-05-16T19:29:19.892Z,100881.77
2019-05-16T19:31:51.420Z,100882.72
2019-05-16T19:34:23.899Z,100878.23
2019-05-16T19:36:58.062Z,100883.68
2019-05-16T19:39:33.448Z,100883.31
2019-05-16T19:42:06.508Z,100883.31
2019-05-16T19:44:38.653Z,100889.70
2019-05-16T19:47:10.034Z,100890.10
2019-05-16T19:49:41.416Z,100882.52
2019-05-16T19:52:13.035Z,100882.44
2019-05-16T19:54:46.945Z,100877.25
2019-05-16T19:57:17.752Z,100874.28
2019-05-16T19:59:49.496Z,100869.50
2019-05-16T20:02:21.074Z,100866.65
2019-05-16T20:04:53.643Z,100863.67
2019-05-16T20:07:26.404Z,100868.42
2019-05-16T20:09:57.830Z,100869.49
2019-05-16T20:12:29.232Z,100870.49
2019-05-16T20:15:07.943Z,100865.45
2019-05-16T20:17:36.622Z,100865.12
2019-05-16T20:20:09.470Z,100875.42
2019-05-16T20:22:41.085Z,100872.98
2019-05-16T20:25:13.486Z,100880.39
2019-05-16T20:27:47.021Z,100879.01
2019-05-16T20:30:19.079Z,100880.94
2019-05-16T20:32:50.884Z,100886.31
2019-05-16T20:35:22.619Z,100887.43
2019-05-16T20:37:54.568Z,100890.50
2019-05-16T20:40:26.606Z,100888.69
2019-05-16T20:42:59.563Z,100889.66
2019-05-16T20:45:31.188Z,100891.69
2019-05-16T20:48:10.824Z,100902.33
2019-05-16T20:50:35.807Z,100897.45
2019-05-16T20:53:07.484Z,100904.40
2019-05-16T20:55:39.006Z,100901.83
2019-05-16T20:58:11.436Z,100912.53
2019-05-16T21:00:43.041Z,100908.90
2019-05-16T21:03:16.312Z,100911.05
2019-05-16T21:05:48.243Z,100917.27
2019-05-16T21:08:20.284Z,100920.60
2019-05-16T21:10:51.705Z,100922.52
2019-05-16T21:13:23.131Z,100926.70
2019-05-16T21:15:54.621Z,100924.85
2019-05-16T21:18:25.993Z,100933.91
2019-05-16T21:20:57.599Z,100936.72
2019-05-16T21:23:29.175Z,100933.41
2019-05-16T21:26:00.734Z,100931.48
2019-05-16T21:28:32.229Z,100941.46
2019-05-16T21:31:03.856Z,100942.03
2019-05-16T21:33:36.556Z,100937.73
2019-05-16T21:36:08.204Z,100937.30
2019-05-16T21:38:39.747Z,100929.39
2019-05-16T21:41:12.276Z,100927.47
2019-05-16T21:43:43.698Z,100924.44
2019-05-16T21:46:17.201Z,100929.75
2019-05-16T21:48:48.671Z,100926.98
2019-05-16T21:51:19.995Z,100932.01
2019-05-16T21:53:51.555Z,100929.84
2019-05-16T21:56:23.187Z,100928.97
2019-05-16T21:58:54.692Z,100923.28
2019-05-16T22:01:27.260Z,100919.95
2019-05-16T22:03:58.844Z,100912.25
2019-05-16T22:06:30.660Z,100915.44
2019-05-16T22:09:02.114Z,100911.52
2019-05-16T22:11:37.095Z,100908.23
2019-05-16T22:14:08.414Z,100911.52
2019-05-16T22:16:41.090Z,100908.44
2019-05-16T22:19:12.639Z,100897.47
2019-05-16T22:21:44.247Z,100901.64
2019-05-16T22:24:17.257Z,100901.50
2019-05-16T22:26:48.883Z,100897.03
2019-05-16T22:29:20.418Z,100890.27
2019-05-16T22:31:51.895Z,100893.21
2019-05-16T22:34:23.564Z,100897.17
2019-05-16T22:36:57.242Z,100900.77
2019-05-16T22:39:28.528Z,100898.98
2019-05-16T22:42:00.210Z,100899.62
2019-05-16T22:44:31.665Z,100892.77
2019-05-16T22:47:03.240Z,100899.13
2019-05-16T22:49:36.815Z,100903.69
2019-05-16T22:52:08.103Z,100901.06
2019-05-16T22:54:39.582Z,100903.34
2019-05-16T22:57:11.019Z,100906.28
2019-05-16T22:59:42.304Z,100901.95
2019-05-16T23:02:13.721Z,100900.27
2019-05-16T23:04:47.321Z,100898.07
2019-05-16T23:07:18.465Z,100895.93
2019-05-16T23:09:49.849Z,100896.28
2019-05-16T23:12:21.277Z,100891.58
2019-05-16T23:14:52.749Z,100889.73
2019-05-16T23:17:26.574Z,100894.69
2019-05-16T23:19:57.318Z,100890.42
2019-05-16T23:22:28.768Z,100889.61
2019-05-16T23:25:00.116Z,100886.94
2019-05-16T23:27:31.445Z,100889.69
2019-05-16T23:30:02.914Z,100887.80
2019-05-16T23:32:36.530Z,100883.06
2019-05-16T23:35:07.866Z,100881.02
2019-05-16T23:37:39.469Z,100882.19
2019-05-16T23:40:11.228Z,100885.11
2019-05-16T23:42:42.993Z,100879.89
2019-05-16T23:45:16.873Z,100883.81
2019-05-16T23:47:47.758Z,100884.59
2019-05-16T23:50:20.791Z,100890.52
2019-05-16T23:52:52.116Z,100889.88
2019-05-16T23:55:23.486Z,100894.64
2019-05-16T23:57:57.120Z,100893.19
